createdAt,value
2023-02-26T00:00:15.218Z,66.54
2023-02-26T00:03:02.317Z,66.51
2023-02-26T00:05:49.236Z,66.38
2023-02-26T00:08:36.410Z,66.16
2023-02-26T00:11:23.525Z,66.33
2023-02-26T00:14:14.411Z,65.84
2023-02-26T00:17:15.123Z,65.78
2023-02-26T00:20:02.669Z,65.87
2023-02-26T00:22:49.862Z,65.89
2023-02-26T00:25:36.810Z,65.61
2023-02-26T00:28:24.005Z,65.29
2023-02-26T00:31:11.807Z,65.62
2023-02-26T00:33:59.250Z,65.69
2023-02-26T00:36:58.561Z,65.71
2023-02-26T00:40:22.979Z,65.61
2023-02-26T00:43:22.741Z,65.71
2023-02-26T00:46:15.740Z,65.91
2023-02-26T00:49:21.454Z,65.88
2023-02-26T00:52:15.286Z,66.00
2023-02-26T00:55:02.269Z,66.03
2023-02-26T00:57:49.288Z,66.18
2023-02-26T01:00:36.168Z,66.18
2023-02-26T01:03:23.427Z,66.57
2023-02-26T01:06:15.629Z,66.56
2023-02-26T01:09:08.411Z,66.57
2023-02-26T01:11:57.656Z,66.54
2023-02-26T01:14:45.030Z,66.74
2023-02-26T01:17:45.663Z,66.77
2023-02-26T01:20:43.369Z,66.85
2023-02-26T01:23:35.479Z,66.75
2023-02-26T01:26:26.880Z,67.04
2023-02-26T01:29:14.309Z,66.95
2023-02-26T01:32:11.594Z,66.82
2023-02-26T01:35:06.082Z,67.07
2023-02-26T01:38:28.314Z,67.44
2023-02-26T01:41:28.820Z,67.58
2023-02-26T01:44:33.270Z,67.30
2023-02-26T01:47:40.208Z,67.30
2023-02-26T01:50:30.200Z,67.70
2023-02-26T01:53:24.420Z,67.89
2023-02-26T01:56:19.563Z,67.95
2023-02-26T01:59:09.938Z,67.80
2023-02-26T02:01:59.721Z,67.93
2023-02-26T02:04:47.522Z,67.69
2023-02-26T02:07:34.596Z,67.86
2023-02-26T02:10:22.014Z,67.88
2023-02-26T02:13:17.738Z,67.89
2023-02-26T02:16:25.767Z,68.19
2023-02-26T02:19:50.644Z,68.26
2023-02-26T02:22:40.466Z,68.12
2023-02-26T02:25:45.578Z,67.92
2023-02-26T02:28:53.694Z,67.90
2023-02-26T02:31:59.034Z,67.94
2023-02-26T02:34:55.267Z,68.09
2023-02-26T02:38:04.436Z,67.88
2023-02-26T02:41:01.256Z,67.87
2023-02-26T02:43:50.768Z,67.79
2023-02-26T02:46:40.695Z,67.56
2023-02-26T02:49:47.482Z,67.54
2023-02-26T02:52:57.972Z,67.63
2023-02-26T02:55:54.038Z,67.60
2023-02-26T02:58:47.103Z,67.21
2023-02-26T03:01:36.576Z,67.17
2023-02-26T03:04:23.516Z,67.12
2023-02-26T03:07:10.968Z,67.06
2023-02-26T03:09:57.999Z,66.86
2023-02-26T03:12:46.186Z,66.66
2023-02-26T03:15:36.107Z,66.70
2023-02-26T03:19:14.770Z,66.76
2023-02-26T03:22:35.088Z,66.80
2023-02-26T03:25:32.405Z,66.70
2023-02-26T03:28:31.758Z,66.78
2023-02-26T03:31:43.228Z,66.61
2023-02-26T03:34:42.021Z,66.77
2023-02-26T03:37:44.351Z,66.52
2023-02-26T03:40:37.679Z,66.30
2023-02-26T03:43:36.154Z,66.55
2023-02-26T03:46:45.318Z,66.46
2023-02-26T03:49:49.517Z,66.36
2023-02-26T03:52:40.295Z,66.61
2023-02-26T03:55:38.379Z,66.19
2023-02-26T03:58:25.526Z,66.23
2023-02-26T04:01:21.986Z,66.00
2023-02-26T04:04:15.395Z,66.29
2023-02-26T04:07:03.148Z,66.27
2023-02-26T04:09:51.926Z,66.19
2023-02-26T04:12:38.866Z,66.11
2023-02-26T04:15:25.820Z,66.38
2023-02-26T04:18:12.886Z,66.07
2023-02-26T04:20:59.826Z,66.11
2023-02-26T04:23:46.797Z,65.97
2023-02-26T04:26:33.740Z,65.97
2023-02-26T04:29:20.756Z,65.78
2023-02-26T04:32:07.874Z,65.57
2023-02-26T04:34:54.939Z,65.71
2023-02-26T04:37:41.874Z,65.79
2023-02-26T04:40:28.822Z,65.75
2023-02-26T04:43:15.709Z,65.86
2023-02-26T04:46:02.721Z,65.55
2023-02-26T04:48:49.694Z,65.89
2023-02-26T04:51:36.671Z,66.03
2023-02-26T04:54:23.598Z,65.39
2023-02-26T04:57:10.507Z,65.53
2023-02-26T04:59:57.385Z,65.27
2023-02-26T05:02:44.377Z,65.55
2023-02-26T05:05:31.430Z,65.54
2023-02-26T05:08:18.441Z,65.34
2023-02-26T05:11:05.545Z,65.28
2023-02-26T05:13:52.744Z,65.43
2023-02-26T05:16:39.657Z,65.36
2023-02-26T05:19:26.616Z,65.49
2023-02-26T05:22:14.040Z,65.51
2023-02-26T05:25:00.903Z,65.45
2023-02-26T05:27:47.840Z,65.24
2023-02-26T05:30:34.876Z,65.48
2023-02-26T05:33:21.899Z,65.34
2023-02-26T05:36:09.373Z,64.96
2023-02-26T05:38:56.390Z,65.25
2023-02-26T05:41:43.359Z,65.39
2023-02-26T05:44:30.328Z,65.27
2023-02-26T05:47:17.582Z,64.98
2023-02-26T05:50:06.031Z,64.92
2023-02-26T05:52:53.035Z,64.97
2023-02-26T05:55:39.950Z,65.36
2023-02-26T05:58:26.985Z,65.20
2023-02-26T06:01:14.286Z,65.45
2023-02-26T06:04:01.257Z,65.33
2023-02-26T06:06:48.315Z,65.15
2023-02-26T06:09:35.276Z,64.96
2023-02-26T06:12:22.286Z,65.27
2023-02-26T06:15:09.852Z,65.11
2023-02-26T06:17:56.742Z,65.15
2023-02-26T06:20:43.909Z,65.05
2023-02-26T06:23:30.880Z,65.03
2023-02-26T06:26:17.861Z,65.01
2023-02-26T06:29:04.860Z,65.23
2023-02-26T06:31:51.929Z,65.07
2023-02-26T06:34:38.923Z,64.96
2023-02-26T06:37:25.964Z,65.39
2023-02-26T06:40:13.408Z,65.36
2023-02-26T06:43:00.403Z,65.06
2023-02-26T06:45:47.454Z,65.51
2023-02-26T06:48:34.470Z,65.25
2023-02-26T06:51:21.424Z,65.42
2023-02-26T06:54:08.399Z,65.25
2023-02-26T06:56:57.813Z,65.60
2023-02-26T06:59:44.741Z,65.44
2023-02-26T07:02:31.771Z,65.70
2023-02-26T07:05:18.823Z,65.83
2023-02-26T07:08:06.097Z,65.49
2023-02-26T07:10:53.099Z,65.72
2023-02-26T07:13:40.382Z,65.89
2023-02-26T07:16:27.651Z,65.71
2023-02-26T07:19:14.956Z,65.80
2023-02-26T07:22:01.909Z,65.75
2023-02-26T07:24:49.887Z,65.88
2023-02-26T07:27:37.201Z,65.97
2023-02-26T07:30:24.230Z,65.88
2023-02-26T07:33:13.289Z,65.81
2023-02-26T07:36:01.561Z,65.92
2023-02-26T07:38:48.500Z,66.05
2023-02-26T07:41:35.390Z,66.14
2023-02-26T07:44:22.307Z,66.35
2023-02-26T07:47:09.520Z,66.56
2023-02-26T07:49:57.544Z,66.65
2023-02-26T07:52:44.428Z,66.70
2023-02-26T07:55:31.373Z,66.81
2023-02-26T07:58:19.182Z,67.02
2023-02-26T08:01:07.134Z,67.15
2023-02-26T08:03:54.332Z,67.04
2023-02-26T08:06:41.237Z,67.00
2023-02-26T08:09:28.485Z,66.85
2023-02-26T08:12:15.701Z,66.85
2023-02-26T08:15:02.985Z,67.11
2023-02-26T08:17:52.546Z,66.84
2023-02-26T08:20:39.787Z,67.15
2023-02-26T08:23:26.921Z,67.41
2023-02-26T08:26:14.175Z,67.12
2023-02-26T08:29:01.083Z,67.44
2023-02-26T08:31:48.311Z,67.17
2023-02-26T08:34:35.456Z,67.59
2023-02-26T08:37:25.032Z,67.16
2023-02-26T08:40:15.046Z,67.51
2023-02-26T08:43:04.021Z,67.45
2023-02-26T08:45:55.309Z,67.40
2023-02-26T08:48:42.237Z,67.57
2023-02-26T08:51:29.442Z,67.66
2023-02-26T08:54:16.459Z,67.68
2023-02-26T08:57:03.593Z,67.36
2023-02-26T08:59:50.542Z,67.64
2023-02-26T09:02:38.437Z,67.61
2023-02-26T09:05:25.438Z,67.65
2023-02-26T09:08:15.405Z,68.00
2023-02-26T09:11:03.320Z,68.09
2023-02-26T09:13:50.236Z,68.11
2023-02-26T09:16:37.484Z,68.19
2023-02-26T09:19:24.552Z,67.88
2023-02-26T09:22:11.578Z,68.30
2023-02-26T09:24:58.544Z,68.29
2023-02-26T09:27:45.454Z,68.09
2023-02-26T09:30:32.714Z,68.69
2023-02-26T09:33:19.882Z,67.92
2023-02-26T09:36:07.005Z,67.58
2023-02-26T09:38:54.022Z,67.69
2023-02-26T09:41:46.580Z,67.35
2023-02-26T09:44:37.942Z,67.29
2023-02-26T09:47:30.452Z,67.21
2023-02-26T09:50:24.465Z,67.03
2023-02-26T09:53:26.268Z,67.06
2023-02-26T09:56:18.595Z,67.29
2023-02-26T09:59:05.721Z,67.25
2023-02-26T10:02:22.064Z,67.34
2023-02-26T10:05:41.087Z,67.12
2023-02-26T10:08:52.747Z,67.62
2023-02-26T10:12:06.216Z,67.39
2023-02-26T10:15:00.443Z,67.30
2023-02-26T10:18:24.024Z,67.34
2023-02-26T10:21:22.385Z,67.05
2023-02-26T10:24:24.466Z,67.43
2023-02-26T10:27:28.418Z,67.29
2023-02-26T10:30:46.547Z,67.39
2023-02-26T10:33:36.301Z,67.37
2023-02-26T10:36:32.846Z,67.30
2023-02-26T10:39:34.930Z,66.99
2023-02-26T10:42:37.063Z,66.71
2023-02-26T10:45:57.516Z,66.81
2023-02-26T10:49:14.594Z,66.76
2023-02-26T10:52:11.802Z,66.96
2023-02-26T10:54:58.722Z,66.91
2023-02-26T10:58:00.300Z,66.84
2023-02-26T11:00:50.180Z,66.69
2023-02-26T11:03:40.565Z,66.53
2023-02-26T11:06:34.769Z,66.76
2023-02-26T11:09:34.738Z,66.71
2023-02-26T11:12:24.079Z,66.85
2023-02-26T11:15:19.429Z,66.77
2023-02-26T11:18:13.762Z,66.46
2023-02-26T11:21:01.246Z,66.19
2023-02-26T11:23:50.289Z,66.08
2023-02-26T11:26:39.442Z,65.95
2023-02-26T11:29:26.414Z,65.62
2023-02-26T11:32:32.793Z,66.07
2023-02-26T11:35:23.261Z,65.94
2023-02-26T11:38:18.455Z,65.95
2023-02-26T11:41:06.225Z,65.83
2023-02-26T11:44:36.849Z,65.75
2023-02-26T11:47:29.502Z,65.57
2023-02-26T11:50:20.046Z,65.49
2023-02-26T11:53:15.849Z,65.63
2023-02-26T11:56:09.616Z,65.42
2023-02-26T11:59:01.602Z,65.35
2023-02-26T12:01:49.968Z,65.65
2023-02-26T12:04:42.911Z,65.74
2023-02-26T12:07:30.989Z,65.55
2023-02-26T12:10:25.396Z,66.10
2023-02-26T12:13:29.170Z,65.43
2023-02-26T12:16:28.133Z,65.33
2023-02-26T12:19:33.857Z,65.52
2023-02-26T12:22:39.329Z,65.50
2023-02-26T12:25:51.235Z,65.47
2023-02-26T12:29:10.283Z,65.36
2023-02-26T12:32:13.692Z,65.50
2023-02-26T12:35:26.068Z,65.21
2023-02-26T12:38:28.645Z,65.26
2023-02-26T12:41:40.657Z,65.28
2023-02-26T12:44:52.479Z,65.34
2023-02-26T12:47:51.638Z,65.44
2023-02-26T12:50:41.176Z,65.03
2023-02-26T12:53:33.969Z,64.92
2023-02-26T12:56:45.832Z,64.27
2023-02-26T12:59:51.476Z,64.33
2023-02-26T13:03:09.401Z,64.48
2023-02-26T13:06:22.449Z,64.50
2023-02-26T13:09:09.220Z,64.28
2023-02-26T13:12:09.666Z,64.59
2023-02-26T13:15:26.994Z,64.51
2023-02-26T13:18:59.699Z,64.51
2023-02-26T13:22:15.825Z,64.50
2023-02-26T13:25:08.619Z,64.79
2023-02-26T13:27:38.779Z,64.85
2023-02-26T13:30:25.974Z,64.86
2023-02-26T13:32:59.882Z,65.13
2023-02-26T13:35:42.017Z,65.21
2023-02-26T13:38:23.917Z,65.13
2023-02-26T13:41:15.908Z,65.10
2023-02-26T13:44:13.478Z,65.10
2023-02-26T13:46:52.910Z,65.15
2023-02-26T13:49:43.488Z,65.07
2023-02-26T13:52:24.928Z,65.17
2023-02-26T13:54:52.204Z,65.21
2023-02-26T13:57:51.030Z,65.25
2023-02-26T14:00:35.092Z,65.28
2023-02-26T14:03:12.579Z,65.47
2023-02-26T14:05:41.905Z,65.54
2023-02-26T14:08:19.988Z,65.62
2023-02-26T14:10:49.440Z,65.37
2023-02-26T14:13:22.629Z,65.38
2023-02-26T14:16:11.685Z,65.11
2023-02-26T14:18:51.378Z,65.09
2023-02-26T14:21:32.609Z,65.16
2023-02-26T14:24:21.966Z,65.26
2023-02-26T14:26:51.863Z,65.19
2023-02-26T14:29:26.673Z,65.20
2023-02-26T14:32:06.120Z,65.01
2023-02-26T14:34:37.751Z,65.04
2023-02-26T14:37:12.461Z,65.17
2023-02-26T14:39:45.676Z,65.49
2023-02-26T14:42:43.996Z,65.22
2023-02-26T14:45:18.960Z,65.28
2023-02-26T14:47:47.166Z,65.42
2023-02-26T14:50:21.174Z,65.38
2023-02-26T14:53:00.782Z,65.33
2023-02-26T14:55:47.560Z,66.00
2023-02-26T14:58:45.701Z,65.50
2023-02-26T15:01:21.365Z,65.58
2023-02-26T15:04:04.286Z,65.14
2023-02-26T15:06:57.029Z,64.55
2023-02-26T15:09:29.940Z,64.15
2023-02-26T15:12:02.930Z,63.45
2023-02-26T15:14:50.810Z,62.86
2023-02-26T15:17:41.372Z,62.99
2023-02-26T15:20:18.336Z,62.55
2023-02-26T15:23:10.938Z,62.15
2023-02-26T15:25:42.741Z,62.35
2023-02-26T15:28:20.119Z,62.67
2023-02-26T15:30:49.935Z,62.77
2023-02-26T15:33:20.558Z,62.74
2023-02-26T15:35:52.142Z,62.86
2023-02-26T15:38:19.834Z,62.89
2023-02-26T15:40:47.410Z,63.00
2023-02-26T15:43:24.402Z,63.11
2023-02-26T15:45:54.749Z,62.92
2023-02-26T15:48:31.400Z,63.11
2023-02-26T15:51:03.912Z,63.13
2023-02-26T15:53:50.726Z,63.25
2023-02-26T15:56:25.008Z,63.25
2023-02-26T15:58:56.657Z,63.29
2023-02-26T16:01:26.406Z,63.48
2023-02-26T16:04:01.029Z,63.43
2023-02-26T16:06:34.468Z,63.65
2023-02-26T16:09:02.032Z,63.59
2023-02-26T16:11:35.543Z,63.74
2023-02-26T16:14:04.672Z,63.88
2023-02-26T16:16:42.588Z,63.86
2023-02-26T16:19:17.163Z,63.67
2023-02-26T16:21:45.548Z,63.59
2023-02-26T16:24:19.406Z,63.51
2023-02-26T16:26:54.300Z,63.80
2023-02-26T16:29:27.061Z,63.80
2023-02-26T16:31:56.453Z,63.66
2023-02-26T16:34:30.895Z,63.64
2023-02-26T16:36:57.746Z,63.67
2023-02-26T16:39:30.513Z,63.53
2023-02-26T16:42:10.751Z,63.83
2023-02-26T16:44:45.877Z,63.99
2023-02-26T16:47:13.051Z,64.07
2023-02-26T16:49:41.616Z,64.21
2023-02-26T16:52:15.276Z,64.27
2023-02-26T16:54:44.291Z,64.41
2023-02-26T16:57:19.133Z,64.46
2023-02-26T17:00:00.990Z,64.52
2023-02-26T17:02:32.060Z,64.81
2023-02-26T17:05:02.693Z,64.59
2023-02-26T17:07:36.332Z,64.82
2023-02-26T17:10:32.221Z,64.88
2023-02-26T17:13:32.238Z,65.07
2023-02-26T17:16:01.885Z,65.08
2023-02-26T17:18:30.776Z,65.26
2023-02-26T17:20:59.745Z,65.28
2023-02-26T17:23:30.688Z,65.36
2023-02-26T17:26:02.325Z,65.60
2023-02-26T17:28:35.638Z,65.78
2023-02-26T17:31:03.515Z,65.97
2023-02-26T17:33:30.291Z,65.88
2023-02-26T17:36:00.622Z,65.91
2023-02-26T17:38:29.200Z,65.96
2023-02-26T17:40:58.350Z,66.30
2023-02-26T17:43:25.982Z,66.29
2023-02-26T17:45:53.251Z,66.46
2023-02-26T17:48:20.238Z,66.54
2023-02-26T17:50:50.770Z,66.67
2023-02-26T17:53:19.085Z,66.94
2023-02-26T17:55:47.572Z,66.96
2023-02-26T17:58:22.690Z,66.98
2023-02-26T18:00:53.241Z,67.25
2023-02-26T18:03:20.932Z,67.38
2023-02-26T18:05:48.854Z,67.60
2023-02-26T18:08:21.777Z,67.60
2023-02-26T18:10:48.533Z,67.83
2023-02-26T18:13:15.398Z,68.08
2023-02-26T18:15:42.934Z,68.27
2023-02-26T18:18:13.639Z,68.28
2023-02-26T18:20:41.610Z,68.13
2023-02-26T18:23:08.401Z,68.36
2023-02-26T18:25:37.015Z,68.22
2023-02-26T18:28:05.117Z,68.40
2023-02-26T18:30:36.441Z,68.44
2023-02-26T18:33:03.276Z,68.80
2023-02-26T18:35:31.161Z,68.63
2023-02-26T18:37:58.267Z,68.90
2023-02-26T18:40:28.223Z,68.72
2023-02-26T18:42:54.973Z,68.92
2023-02-26T18:45:24.139Z,69.34
2023-02-26T18:47:50.818Z,68.92
2023-02-26T18:50:18.430Z,69.20
2023-02-26T18:52:45.271Z,69.08
2023-02-26T18:55:13.019Z,69.56
2023-02-26T18:57:42.390Z,69.71
2023-02-26T19:00:14.040Z,69.42
2023-02-26T19:02:44.935Z,69.40
2023-02-26T19:05:13.069Z,69.82
2023-02-26T19:07:42.618Z,69.93
2023-02-26T19:10:13.537Z,70.04
2023-02-26T19:12:40.289Z,70.08
2023-02-26T19:15:08.454Z,70.31
2023-02-26T19:17:35.546Z,70.29
2023-02-26T19:20:02.385Z,70.32
2023-02-26T19:22:29.054Z,70.82
2023-02-26T19:24:55.760Z,70.54
2023-02-26T19:27:22.551Z,70.77
2023-02-26T19:29:49.298Z,70.86
2023-02-26T19:32:16.057Z,70.98
2023-02-26T19:34:43.072Z,71.00
2023-02-26T19:37:10.740Z,71.23
2023-02-26T19:39:38.318Z,71.29
2023-02-26T19:42:05.643Z,71.34
2023-02-26T19:44:32.602Z,71.53
2023-02-26T19:47:00.130Z,71.32
2023-02-26T19:49:27.062Z,71.65
2023-02-26T19:51:53.755Z,71.84
2023-02-26T19:54:20.698Z,71.80
2023-02-26T19:56:49.450Z,72.07
2023-02-26T19:59:17.397Z,72.03
2023-02-26T20:01:46.370Z,72.19
2023-02-26T20:04:13.846Z,72.00
2023-02-26T20:06:40.710Z,72.12
2023-02-26T20:09:07.413Z,72.21
2023-02-26T20:11:34.687Z,72.40
2023-02-26T20:14:02.460Z,72.14
2023-02-26T20:16:29.130Z,72.17
2023-02-26T20:18:55.770Z,72.54
2023-02-26T20:21:23.408Z,72.54
2023-02-26T20:23:50.133Z,72.53
2023-02-26T20:26:17.131Z,72.75
2023-02-26T20:28:43.986Z,72.76
2023-02-26T20:31:11.719Z,72.89
2023-02-26T20:33:39.540Z,73.10
2023-02-26T20:36:10.339Z,72.95
2023-02-26T20:38:37.386Z,73.23
2023-02-26T20:41:04.388Z,73.12
2023-02-26T20:43:31.240Z,73.05
2023-02-26T20:45:58.039Z,73.38
2023-02-26T20:48:25.302Z,73.21
2023-02-26T20:50:53.736Z,73.22
2023-02-26T20:53:21.655Z,73.67
2023-02-26T20:55:48.441Z,73.17
2023-02-26T20:58:16.680Z,73.26
2023-02-26T21:00:43.958Z,73.47
2023-02-26T21:03:10.880Z,73.49
2023-02-26T21:05:38.641Z,73.48
2023-02-26T21:08:05.377Z,73.11
2023-02-26T21:10:32.821Z,73.49
2023-02-26T21:12:59.940Z,73.76
2023-02-26T21:15:26.876Z,73.69
2023-02-26T21:17:53.989Z,73.61
2023-02-26T21:20:22.327Z,73.57
2023-02-26T21:22:49.584Z,73.85
2023-02-26T21:25:16.773Z,73.93
2023-02-26T21:27:43.875Z,74.00
2023-02-26T21:30:12.810Z,74.06
2023-02-26T21:32:40.367Z,74.25
2023-02-26T21:35:09.038Z,74.20
2023-02-26T21:37:35.674Z,74.14
2023-02-26T21:40:02.347Z,74.48
2023-02-26T21:42:32.151Z,74.23
2023-02-26T21:44:58.769Z,74.41
2023-02-26T21:47:25.596Z,74.24
2023-02-26T21:49:52.249Z,74.20
2023-02-26T21:52:18.974Z,74.26
2023-02-26T21:54:45.598Z,74.39
2023-02-26T21:57:12.299Z,74.10
2023-02-26T21:59:39.148Z,74.23
2023-02-26T22:02:06.116Z,74.05
2023-02-26T22:04:35.136Z,73.91
2023-02-26T22:07:01.796Z,74.06
2023-02-26T22:09:28.719Z,73.75
2023-02-26T22:11:55.368Z,73.82
2023-02-26T22:14:22.261Z,73.84
2023-02-26T22:16:48.986Z,73.79
2023-02-26T22:19:15.740Z,73.56
2023-02-26T22:21:42.904Z,73.71
2023-02-26T22:24:09.705Z,73.85
2023-02-26T22:26:36.835Z,73.57
2023-02-26T22:29:04.090Z,73.58
2023-02-26T22:31:32.017Z,73.62
2023-02-26T22:33:59.505Z,73.54
2023-02-26T22:36:27.570Z,73.50
2023-02-26T22:38:54.362Z,73.43
2023-02-26T22:41:21.022Z,73.39
2023-02-26T22:43:47.667Z,73.42
2023-02-26T22:46:16.767Z,73.44
2023-02-26T22:48:43.783Z,73.45
2023-02-26T22:51:10.424Z,73.20
2023-02-26T22:53:37.061Z,73.42
2023-02-26T22:56:03.795Z,73.43
2023-02-26T22:58:30.435Z,73.23
2023-02-26T23:01:05.232Z,73.34
2023-02-26T23:03:32.735Z,73.30
2023-02-26T23:06:00.084Z,73.54
2023-02-26T23:08:27.840Z,73.55
2023-02-26T23:10:56.837Z,73.73
2023-02-26T23:13:24.510Z,73.64
2023-02-26T23:15:51.197Z,73.65
2023-02-26T23:18:18.038Z,73.84
2023-02-26T23:20:45.649Z,74.06
2023-02-26T23:23:12.385Z,73.86
2023-02-26T23:25:41.595Z,74.05
2023-02-26T23:28:08.887Z,73.82
2023-02-26T23:30:36.669Z,74.07
2023-02-26T23:33:04.878Z,74.04
2023-02-26T23:35:31.580Z,74.30
2023-02-26T23:37:58.374Z,74.13
2023-02-26T23:40:25.208Z,74.24
2023-02-26T23:42:52.614Z,74.39
2023-02-26T23:45:19.527Z,74.34
2023-02-26T23:47:46.194Z,74.70
2023-02-26T23:50:12.867Z,74.77
2023-02-26T23:52:39.696Z,74.75
2023-02-26T23:55:06.938Z,75.09
2023-02-26T23:57:33.639Z,75.01
